Mt Bomar Mars — 9HCM9 — position and weather

sailwx.info

Track history (hours):
 
Tides and Currents Weather Stations Pressure Air Temp Water Temp Dewpoint Dewpoint Depression Visibility Wind Speed Wind Dir Waves Ship Positions

Mt Bomar Mars

Last reported at 2014-Oct-22 04:33 UTC. Time now 2014-Oct-22 04:51 UTC.
Position N 54°45' W 000°39'.

Length 107 m; draft 6.6 m.

Type: Tanker. MMSI: 256784000.

Date/timePositionNaut miles runAvg speedWind from/ knotsBaromVisibWave heightAir tempDewpointWater temp
2014-Oct-22 04:33N 54°45' W 000°39'1 1.4
2014-Oct-22 03:33N 54°46' W 000°40'2 1.7
2014-Oct-22 02:33N 54°47' W 000°43'2 1.9
2014-Oct-22 01:32N 54°49' W 000°45'2 1.8
2014-Oct-22 00:32N 54°50' W 000°47'2 1.6
2014-Oct-21 23:32N 54°51' W 000°49'1 1.4
2014-Oct-21 22:32N 54°52' W 000°51'5 4.7
2014-Oct-21 21:34N 54°49' W 000°45'9 7.7
2014-Oct-21 20:27N 54°43' W 000°34'0 0.1
2014-Oct-21 19:32N 54°43' W 000°34'1 1.3
2014-Oct-21 18:33N 54°44' W 000°35'2 1.7
2014-Oct-21 17:32N 54°45' W 000°38'2 2.0
2014-Oct-21 16:33N 54°47' W 000°40'2 2.5
2014-Oct-21 15:33N 54°48' W 000°44'3 2.8
2014-Oct-21 14:33N 54°50' W 000°48'3 2.9
2014-Oct-21 13:32N 54°52' W 000°51'1 0.7
2014-Oct-21 12:33N 54°52' W 000°52'8 7.6
2014-Oct-21 11:32N 54°44' W 000°49'2 2.4
2014-Oct-21 10:33N 54°42' W 000°49'2 1.7
2014-Oct-21 09:32N 54°43' W 000°52'1 1.3
2014-Oct-21 08:32N 54°43' W 000°54'1 1.1
2014-Oct-21 07:32N 54°43' W 000°56'3 2.7
2014-Oct-21 06:33N 54°42' W 000°59'1 1.0
2014-Oct-21 05:31N 54°42' W 001°01'0 0.0
2014-Oct-21 04:31N 54°42' W 001°01'0 0.0
2014-Oct-21 03:31N 54°42' W 001°01'0 0.0
2014-Oct-21 02:28N 54°42' W 001°01'0 0.0
2014-Oct-21 01:31N 54°42' W 001°01'0 0.0
2014-Oct-21 00:31N 54°42' W 001°01'2 2.1
2014-Oct-20 23:33N 54°41' W 000°57'1411.4
2014-Oct-20 22:19N 54°37' W 000°34'1012.5
2014-Oct-20 21:33N 54°31' W 000°22'1312.6
2014-Oct-20 20:33N 54°23' W 000°05'1312.8
2014-Oct-20 19:33N 54°14' E 000°11'1212.4
2014-Oct-20 18:33N 54°06' E 000°27'1311.9
2014-Oct-20 17:26N 53°57' E 000°44'148 9.9
2014-Oct-20 02:33N 51°45' E 002°34'1312.3
2014-Oct-20 01:30N 51°35' E 002°20'1212.9
2014-Oct-20 00:33N 51°25' E 002°08'1212.0
2014-Oct-19 23:33N 51°14' E 002°05'1413.6
2014-Oct-19 22:34N 51°06' E 001°46'1414.4
2014-Oct-19 21:33N 50°56' E 001°30'1414.0
2014-Oct-19 20:32N 50°43' E 001°23'32511.6
2014-Oct-18 16:33N 48°14' W 006°02'  
2014-Oct-16 01:33N 38°11' W 009°15'10 9.9
2014-Oct-16 00:33N 38°04' W 009°05'1010.3
2014-Oct-15 23:33N 37°57' W 008°55'2 1.9
2014-Oct-15 22:32N 37°57' W 008°53'0 0.0
2014-Oct-15 21:32N 37°57' W 008°53'0 0.0
2014-Oct-15 20:32N 37°57' W 008°53'0 0.0
2014-Oct-15 19:32N 37°57' W 008°53'0 0.0
2014-Oct-15 18:32N 37°57' W 008°53'0 0.0
2014-Oct-15 17:32N 37°57' W 008°53'0 0.0
2014-Oct-15 16:32N 37°57' W 008°53'0 0.0
2014-Oct-15 15:32N 37°57' W 008°53'0 0.0
2014-Oct-15 14:32N 37°57' W 008°53'0 0.0
2014-Oct-15 13:32N 37°57' W 008°53'0 0.0
2014-Oct-15 12:32N 37°57' W 008°53'0 0.0
2014-Oct-15 11:32N 37°57' W 008°53'0 0.0
2014-Oct-15 10:32N 37°57' W 008°53'0 0.0
2014-Oct-15 09:32N 37°57' W 008°53'0 0.0
2014-Oct-15 08:32N 37°57' W 008°53'0 0.0
2014-Oct-15 07:32N 37°57' W 008°53'0 0.0
2014-Oct-15 06:32N 37°57' W 008°53'0 0.0
2014-Oct-15 05:32N 37°57' W 008°53'0 0.0
2014-Oct-15 04:32N 37°57' W 008°53'0 0.0
2014-Oct-15 03:32N 37°57' W 008°53'0 0.0
2014-Oct-15 02:29N 37°57' W 008°53'0 0.0
2014-Oct-15 01:32N 37°57' W 008°53'0 0.0
2014-Oct-15 00:32N 37°57' W 008°53'0 0.0
2014-Oct-14 23:32N 37°57' W 008°53'3 2.7
2014-Oct-14 22:33N 37°54' W 008°53'1 1.2
2014-Oct-14 21:31N 37°54' W 008°51'0 0.0
2014-Oct-14 20:31N 37°54' W 008°51'0 0.0
2014-Oct-14 19:31N 37°54' W 008°51'0 0.0
2014-Oct-14 18:31N 37°54' W 008°51'0 0.0
2014-Oct-14 17:31N 37°54' W 008°51'0 0.0
2014-Oct-14 16:28N 37°54' W 008°51'0 0.0
2014-Oct-14 15:31N 37°54' W 008°51'0 0.0
2014-Oct-14 14:31N 37°54' W 008°51'0 0.0
2014-Oct-14 13:31N 37°54' W 008°51'0 0.0
2014-Oct-14 12:28N 37°54' W 008°51'3 3.3
2014-Oct-14 11:33N 37°56' W 008°54'1111.5
2014-Oct-14 10:32N 38°04' W 009°04'1211.5
2014-Oct-14 09:33N 38°10' W 009°17'1111.4
2014-Oct-14 08:33N 38°16' W 009°30'  
Track history (hours):
 
Tides and Currents Weather Stations Pressure Air Temp Water Temp Dewpoint Dewpoint Depression Visibility Wind Speed Wind Dir Waves Ship Positions

Mt Bomar Mars

Last reported at 2014-Oct-22 04:33 UTC. Time now 2014-Oct-22 04:51 UTC.
Position N 54°45' W 000°39'.

Length 107 m; draft 6.6 m.

Type: Tanker. MMSI: 256784000.

Date/timePositionNaut miles runAvg speedWind from/ knotsBaromVisibWave heightAir tempDewpointWater temp
2014-Oct-22 04:33N 54°45' W 000°39'1 1.4
2014-Oct-22 03:33N 54°46' W 000°40'2 1.7
2014-Oct-22 02:33N 54°47' W 000°43'2 1.9
2014-Oct-22 01:32N 54°49' W 000°45'2 1.8
2014-Oct-22 00:32N 54°50' W 000°47'2 1.6
2014-Oct-21 23:32N 54°51' W 000°49'1 1.4
2014-Oct-21 22:32N 54°52' W 000°51'5 4.7
2014-Oct-21 21:34N 54°49' W 000°45'9 7.7
2014-Oct-21 20:27N 54°43' W 000°34'0 0.1
2014-Oct-21 19:32N 54°43' W 000°34'1 1.3
2014-Oct-21 18:33N 54°44' W 000°35'2 1.7
2014-Oct-21 17:32N 54°45' W 000°38'2 2.0
2014-Oct-21 16:33N 54°47' W 000°40'2 2.5
2014-Oct-21 15:33N 54°48' W 000°44'3 2.8
2014-Oct-21 14:33N 54°50' W 000°48'3 2.9
2014-Oct-21 13:32N 54°52' W 000°51'1 0.7
2014-Oct-21 12:33N 54°52' W 000°52'8 7.6
2014-Oct-21 11:32N 54°44' W 000°49'2 2.4
2014-Oct-21 10:33N 54°42' W 000°49'2 1.7
2014-Oct-21 09:32N 54°43' W 000°52'1 1.3
2014-Oct-21 08:32N 54°43' W 000°54'1 1.1
2014-Oct-21 07:32N 54°43' W 000°56'3 2.7
2014-Oct-21 06:33N 54°42' W 000°59'1 1.0
2014-Oct-21 05:31N 54°42' W 001°01'0 0.0
2014-Oct-21 04:31N 54°42' W 001°01'0 0.0
2014-Oct-21 03:31N 54°42' W 001°01'0 0.0
2014-Oct-21 02:28N 54°42' W 001°01'0 0.0
2014-Oct-21 01:31N 54°42' W 001°01'0 0.0
2014-Oct-21 00:31N 54°42' W 001°01'2 2.1
2014-Oct-20 23:33N 54°41' W 000°57'1411.4
2014-Oct-20 22:19N 54°37' W 000°34'1012.5
2014-Oct-20 21:33N 54°31' W 000°22'1312.6
2014-Oct-20 20:33N 54°23' W 000°05'1312.8
2014-Oct-20 19:33N 54°14' E 000°11'1212.4
2014-Oct-20 18:33N 54°06' E 000°27'1311.9
2014-Oct-20 17:26N 53°57' E 000°44'148 9.9
2014-Oct-20 02:33N 51°45' E 002°34'1312.3
2014-Oct-20 01:30N 51°35' E 002°20'1212.9
2014-Oct-20 00:33N 51°25' E 002°08'1212.0
2014-Oct-19 23:33N 51°14' E 002°05'1413.6
2014-Oct-19 22:34N 51°06' E 001°46'1414.4
2014-Oct-19 21:33N 50°56' E 001°30'1414.0
2014-Oct-19 20:32N 50°43' E 001°23'32511.6
2014-Oct-18 16:33N 48°14' W 006°02'  
2014-Oct-16 01:33N 38°11' W 009°15'10 9.9
2014-Oct-16 00:33N 38°04' W 009°05'1010.3
2014-Oct-15 23:33N 37°57' W 008°55'2 1.9
2014-Oct-15 22:32N 37°57' W 008°53'0 0.0
2014-Oct-15 21:32N 37°57' W 008°53'0 0.0
2014-Oct-15 20:32N 37°57' W 008°53'0 0.0
2014-Oct-15 19:32N 37°57' W 008°53'0 0.0
2014-Oct-15 18:32N 37°57' W 008°53'0 0.0
2014-Oct-15 17:32N 37°57' W 008°53'0 0.0
2014-Oct-15 16:32N 37°57' W 008°53'0 0.0
2014-Oct-15 15:32N 37°57' W 008°53'0 0.0
2014-Oct-15 14:32N 37°57' W 008°53'0 0.0
2014-Oct-15 13:32N 37°57' W 008°53'0 0.0
2014-Oct-15 12:32N 37°57' W 008°53'0 0.0
2014-Oct-15 11:32N 37°57' W 008°53'0 0.0
2014-Oct-15 10:32N 37°57' W 008°53'0 0.0
2014-Oct-15 09:32N 37°57' W 008°53'0 0.0
2014-Oct-15 08:32N 37°57' W 008°53'0 0.0
2014-Oct-15 07:32N 37°57' W 008°53'0 0.0
2014-Oct-15 06:32N 37°57' W 008°53'0 0.0
2014-Oct-15 05:32N 37°57' W 008°53'0 0.0
2014-Oct-15 04:32N 37°57' W 008°53'0 0.0
2014-Oct-15 03:32N 37°57' W 008°53'0 0.0
2014-Oct-15 02:29N 37°57' W 008°53'0 0.0
2014-Oct-15 01:32N 37°57' W 008°53'0 0.0
2014-Oct-15 00:32N 37°57' W 008°53'0 0.0
2014-Oct-14 23:32N 37°57' W 008°53'3 2.7
2014-Oct-14 22:33N 37°54' W 008°53'1 1.2
2014-Oct-14 21:31N 37°54' W 008°51'0 0.0
2014-Oct-14 20:31N 37°54' W 008°51'0 0.0
2014-Oct-14 19:31N 37°54' W 008°51'0 0.0
2014-Oct-14 18:31N 37°54' W 008°51'0 0.0
2014-Oct-14 17:31N 37°54' W 008°51'0 0.0
2014-Oct-14 16:28N 37°54' W 008°51'0 0.0
2014-Oct-14 15:31N 37°54' W 008°51'0 0.0
2014-Oct-14 14:31N 37°54' W 008°51'0 0.0
2014-Oct-14 13:31N 37°54' W 008°51'0 0.0
2014-Oct-14 12:28N 37°54' W 008°51'3 3.3
2014-Oct-14 11:33N 37°56' W 008°54'1111.5
2014-Oct-14 10:32N 38°04' W 009°04'1211.5
2014-Oct-14 09:33N 38°10' W 009°17'1111.4
2014-Oct-14 08:33N 38°16' W 009°30'  

Dump ship's entire track history